sensor_id;sensor_type;location;lat;lon;timestamp;P1;durP1;ratioP1;P2;durP2;ratioP2
36663;SDS011;53333;51.976;20.144;2022-12-05T00:01:23;27.45;;;14.18;;
36663;SDS011;53333;51.976;20.144;2022-12-05T00:03:59;28.70;;;14.80;;
36663;SDS011;53333;51.976;20.144;2022-12-05T00:06:35;28.77;;;15.05;;
36663;SDS011;53333;51.976;20.144;2022-12-05T00:09:12;27.48;;;15.15;;
36663;SDS011;53333;51.976;20.144;2022-12-05T00:14:21;26.77;;;13.45;;
36663;SDS011;53333;51.976;20.144;2022-12-05T00:16:54;27.58;;;13.70;;
36663;SDS011;53333;51.976;20.144;2022-12-05T00:19:28;25.27;;;13.55;;
36663;SDS011;53333;51.976;20.144;2022-12-05T00:22:01;25.33;;;14.23;;
36663;SDS011;53333;51.976;20.144;2022-12-05T00:24:41;26.58;;;14.15;;
36663;SDS011;53333;51.976;20.144;2022-12-05T00:27:16;23.00;;;12.45;;
36663;SDS011;53333;51.976;20.144;2022-12-05T00:29:50;26.60;;;15.07;;
36663;SDS011;53333;51.976;20.144;2022-12-05T00:32:23;23.23;;;12.82;;
36663;SDS011;53333;51.976;20.144;2022-12-05T00:34:57;24.98;;;12.27;;
36663;SDS011;53333;51.976;20.144;2022-12-05T00:37:30;26.27;;;14.35;;
36663;SDS011;53333;51.976;20.144;2022-12-05T00:40:05;22.70;;;12.38;;
36663;SDS011;53333;51.976;20.144;2022-12-05T00:42:41;24.48;;;12.93;;
36663;SDS011;53333;51.976;20.144;2022-12-05T00:45:21;27.13;;;13.48;;
36663;SDS011;53333;51.976;20.144;2022-12-05T00:47:54;26.80;;;13.98;;
36663;SDS011;53333;51.976;20.144;2022-12-05T00:50:31;30.20;;;14.85;;
36663;SDS011;53333;51.976;20.144;2022-12-05T00:53:06;27.98;;;13.55;;
36663;SDS011;53333;51.976;20.144;2022-12-05T00:55:40;26.63;;;14.65;;
36663;SDS011;53333;51.976;20.144;2022-12-05T00:58:15;31.83;;;14.02;;
36663;SDS011;53333;51.976;20.144;2022-12-05T01:00:48;34.00;;;15.77;;
36663;SDS011;53333;51.976;20.144;2022-12-05T01:03:22;23.98;;;13.80;;
36663;SDS011;53333;51.976;20.144;2022-12-05T01:05:57;29.60;;;14.10;;
36663;SDS011;53333;51.976;20.144;2022-12-05T01:08:31;25.35;;;13.63;;
36663;SDS011;53333;51.976;20.144;2022-12-05T01:11:06;30.00;;;15.15;;
36663;SDS011;53333;51.976;20.144;2022-12-05T01:13:42;30.08;;;13.85;;
36663;SDS011;53333;51.976;20.144;2022-12-05T01:16:17;29.42;;;14.57;;
36663;SDS011;53333;51.976;20.144;2022-12-05T01:18:53;26.45;;;14.10;;
36663;SDS011;53333;51.976;20.144;2022-12-05T01:21:28;27.13;;;13.25;;
36663;SDS011;53333;51.976;20.144;2022-12-05T01:24:02;24.15;;;13.57;;
36663;SDS011;53333;51.976;20.144;2022-12-05T01:26:38;26.63;;;14.13;;
36663;SDS011;53333;51.976;20.144;2022-12-05T01:29:15;31.02;;;14.95;;
36663;SDS011;53333;51.976;20.144;2022-12-05T01:31:52;24.63;;;13.48;;
36663;SDS011;53333;51.976;20.144;2022-12-05T01:34:27;26.15;;;14.00;;
36663;SDS011;53333;51.976;20.144;2022-12-05T01:39:34;23.33;;;12.32;;
36663;SDS011;53333;51.976;20.144;2022-12-05T01:42:10;28.70;;;13.52;;
36663;SDS011;53333;51.976;20.144;2022-12-05T01:45:03;26.25;;;13.27;;
36663;SDS011;53333;51.976;20.144;2022-12-05T01:47:40;29.10;;;13.95;;
36663;SDS011;53333;51.976;20.144;2022-12-05T01:50:14;25.35;;;13.13;;
36663;SDS011;53333;51.976;20.144;2022-12-05T01:55:22;25.33;;;14.00;;
36663;SDS011;53333;51.976;20.144;2022-12-05T01:57:56;29.65;;;14.27;;
36663;SDS011;53333;51.976;20.144;2022-12-05T02:00:33;29.92;;;14.85;;
36663;SDS011;53333;51.976;20.144;2022-12-05T02:03:08;29.73;;;14.77;;
36663;SDS011;53333;51.976;20.144;2022-12-05T02:05:45;32.88;;;16.40;;
36663;SDS011;53333;51.976;20.144;2022-12-05T02:08:22;30.73;;;14.98;;
36663;SDS011;53333;51.976;20.144;2022-12-05T02:10:56;30.92;;;14.48;;
36663;SDS011;53333;51.976;20.144;2022-12-05T02:13:36;29.75;;;14.05;;
36663;SDS011;53333;51.976;20.144;2022-12-05T02:16:28;25.42;;;13.70;;
36663;SDS011;53333;51.976;20.144;2022-12-05T02:19:19;26.40;;;14.13;;
36663;SDS011;53333;51.976;20.144;2022-12-05T02:22:27;26.30;;;13.35;;
36663;SDS011;53333;51.976;20.144;2022-12-05T02:28:49;24.42;;;12.27;;
36663;SDS011;53333;51.976;20.144;2022-12-05T02:31:47;25.27;;;12.75;;
36663;SDS011;53333;51.976;20.144;2022-12-05T02:34:30;30.73;;;14.57;;
36663;SDS011;53333;51.976;20.144;2022-12-05T02:37:11;27.02;;;14.15;;
36663;SDS011;53333;51.976;20.144;2022-12-05T02:39:51;27.95;;;12.40;;
36663;SDS011;53333;51.976;20.144;2022-12-05T02:42:30;26.90;;;14.20;;
36663;SDS011;53333;51.976;20.144;2022-12-05T02:45:34;23.48;;;12.90;;
36663;SDS011;53333;51.976;20.144;2022-12-05T02:48:11;26.98;;;14.27;;
36663;SDS011;53333;51.976;20.144;2022-12-05T02:50:48;25.42;;;12.90;;
36663;SDS011;53333;51.976;20.144;2022-12-05T02:53:26;27.30;;;12.88;;
36663;SDS011;53333;51.976;20.144;2022-12-05T02:56:03;30.50;;;14.80;;
36663;SDS011;53333;51.976;20.144;2022-12-05T02:58:39;29.67;;;14.93;;
36663;SDS011;53333;51.976;20.144;2022-12-05T03:01:17;26.73;;;13.63;;
36663;SDS011;53333;51.976;20.144;2022-12-05T03:03:53;27.55;;;14.63;;
36663;SDS011;53333;51.976;20.144;2022-12-05T03:06:28;27.98;;;13.27;;
36663;SDS011;53333;51.976;20.144;2022-12-05T03:09:07;28.45;;;12.52;;
36663;SDS011;53333;51.976;20.144;2022-12-05T03:11:46;26.58;;;12.82;;
36663;SDS011;53333;51.976;20.144;2022-12-05T03:14:23;26.77;;;12.95;;
36663;SDS011;53333;51.976;20.144;2022-12-05T03:17:01;24.73;;;12.32;;
36663;SDS011;53333;51.976;20.144;2022-12-05T03:19:42;28.50;;;13.80;;
36663;SDS011;53333;51.976;20.144;2022-12-05T03:22:23;24.38;;;13.13;;
36663;SDS011;53333;51.976;20.144;2022-12-05T03:25:04;28.50;;;13.15;;
36663;SDS011;53333;51.976;20.144;2022-12-05T03:27:39;30.33;;;12.93;;
36663;SDS011;53333;51.976;20.144;2022-12-05T03:30:21;33.40;;;15.57;;
36663;SDS011;53333;51.976;20.144;2022-12-05T03:32:57;24.00;;;12.77;;
36663;SDS011;53333;51.976;20.144;2022-12-05T03:35:41;29.23;;;14.02;;
36663;SDS011;53333;51.976;20.144;2022-12-05T03:38:20;25.27;;;13.32;;
36663;SDS011;53333;51.976;20.144;2022-12-05T03:41:01;23.42;;;14.02;;
36663;SDS011;53333;51.976;20.144;2022-12-05T03:43:42;31.15;;;13.23;;
36663;SDS011;53333;51.976;20.144;2022-12-05T03:46:23;26.52;;;12.50;;
36663;SDS011;53333;51.976;20.144;2022-12-05T03:49:01;26.20;;;12.88;;
36663;SDS011;53333;51.976;20.144;2022-12-05T03:51:43;26.40;;;13.20;;
36663;SDS011;53333;51.976;20.144;2022-12-05T03:54:22;25.30;;;13.30;;
36663;SDS011;53333;51.976;20.144;2022-12-05T03:56:58;24.40;;;12.60;;
36663;SDS011;53333;51.976;20.144;2022-12-05T03:59:38;21.02;;;11.93;;
36663;SDS011;53333;51.976;20.144;2022-12-05T04:02:18;23.38;;;12.32;;
36663;SDS011;53333;51.976;20.144;2022-12-05T04:04:59;23.48;;;12.57;;
36663;SDS011;53333;51.976;20.144;2022-12-05T04:07:37;26.10;;;13.48;;
36663;SDS011;53333;51.976;20.144;2022-12-05T04:10:13;26.38;;;12.35;;
36663;SDS011;53333;51.976;20.144;2022-12-05T04:12:51;26.48;;;12.55;;
36663;SDS011;53333;51.976;20.144;2022-12-05T04:15:28;22.67;;;12.65;;
36663;SDS011;53333;51.976;20.144;2022-12-05T04:18:24;26.88;;;12.82;;
36663;SDS011;53333;51.976;20.144;2022-12-05T04:20:59;24.67;;;11.57;;
36663;SDS011;53333;51.976;20.144;2022-12-05T04:23:53;23.52;;;12.10;;
36663;SDS011;53333;51.976;20.144;2022-12-05T04:26:42;20.63;;;11.88;;
36663;SDS011;53333;51.976;20.144;2022-12-05T04:29:26;26.52;;;12.45;;
36663;SDS011;53333;51.976;20.144;2022-12-05T04:32:03;24.38;;;12.90;;
36663;SDS011;53333;51.976;20.144;2022-12-05T04:34:40;23.10;;;12.45;;
36663;SDS011;53333;51.976;20.144;2022-12-05T04:37:18;23.95;;;12.38;;
36663;SDS011;53333;51.976;20.144;2022-12-05T04:40:00;26.90;;;13.10;;
36663;SDS011;53333;51.976;20.144;2022-12-05T04:42:36;21.67;;;12.15;;
36663;SDS011;53333;51.976;20.144;2022-12-05T04:45:14;22.25;;;11.68;;
36663;SDS011;53333;51.976;20.144;2022-12-05T04:47:53;19.75;;;10.00;;
36663;SDS011;53333;51.976;20.144;2022-12-05T04:50:30;20.95;;;11.48;;
36663;SDS011;53333;51.976;20.144;2022-12-05T04:53:05;19.60;;;12.05;;
36663;SDS011;53333;51.976;20.144;2022-12-05T04:55:42;24.15;;;13.30;;
36663;SDS011;53333;51.976;20.144;2022-12-05T04:58:20;22.27;;;12.15;;
36663;SDS011;53333;51.976;20.144;2022-12-05T05:00:57;22.45;;;12.35;;
36663;SDS011;53333;51.976;20.144;2022-12-05T05:03:37;24.55;;;13.15;;
36663;SDS011;53333;51.976;20.144;2022-12-05T05:06:15;22.13;;;12.93;;
36663;SDS011;53333;51.976;20.144;2022-12-05T05:08:50;24.52;;;13.27;;
36663;SDS011;53333;51.976;20.144;2022-12-05T05:11:27;18.98;;;11.35;;
36663;SDS011;53333;51.976;20.144;2022-12-05T05:14:03;22.70;;;12.23;;
36663;SDS011;53333;51.976;20.144;2022-12-05T05:16:38;22.70;;;12.40;;
36663;SDS011;53333;51.976;20.144;2022-12-05T05:19:13;22.80;;;12.70;;
36663;SDS011;53333;51.976;20.144;2022-12-05T05:21:46;25.60;;;13.48;;
36663;SDS011;53333;51.976;20.144;2022-12-05T05:24:20;22.30;;;12.27;;
36663;SDS011;53333;51.976;20.144;2022-12-05T05:26:55;27.25;;;13.10;;
36663;SDS011;53333;51.976;20.144;2022-12-05T05:29:29;23.92;;;11.55;;
36663;SDS011;53333;51.976;20.144;2022-12-05T05:32:02;22.50;;;11.32;;
36663;SDS011;53333;51.976;20.144;2022-12-05T05:34:36;22.88;;;13.65;;
36663;SDS011;53333;51.976;20.144;2022-12-05T05:37:09;23.45;;;12.57;;
36663;SDS011;53333;51.976;20.144;2022-12-05T05:39:43;27.38;;;14.02;;
36663;SDS011;53333;51.976;20.144;2022-12-05T05:42:18;27.00;;;13.77;;
36663;SDS011;53333;51.976;20.144;2022-12-05T05:44:52;24.77;;;13.43;;
36663;SDS011;53333;51.976;20.144;2022-12-05T05:47:26;25.35;;;13.32;;
36663;SDS011;53333;51.976;20.144;2022-12-05T05:49:59;23.67;;;12.70;;
36663;SDS011;53333;51.976;20.144;2022-12-05T05:52:33;23.45;;;11.98;;
36663;SDS011;53333;51.976;20.144;2022-12-05T05:55:07;26.05;;;13.70;;
36663;SDS011;53333;51.976;20.144;2022-12-05T05:57:43;21.05;;;13.65;;
36663;SDS011;53333;51.976;20.144;2022-12-05T06:00:16;27.63;;;14.27;;
36663;SDS011;53333;51.976;20.144;2022-12-05T06:02:50;28.02;;;14.57;;
36663;SDS011;53333;51.976;20.144;2022-12-05T06:05:24;25.05;;;13.18;;
36663;SDS011;53333;51.976;20.144;2022-12-05T06:07:58;27.17;;;14.15;;
36663;SDS011;53333;51.976;20.144;2022-12-05T06:10:31;29.00;;;15.10;;
36663;SDS011;53333;51.976;20.144;2022-12-05T06:13:06;26.30;;;13.07;;
36663;SDS011;53333;51.976;20.144;2022-12-05T06:15:40;22.38;;;12.73;;
36663;SDS011;53333;51.976;20.144;2022-12-05T06:18:13;27.98;;;14.35;;
36663;SDS011;53333;51.976;20.144;2022-12-05T06:20:51;27.60;;;15.13;;
36663;SDS011;53333;51.976;20.144;2022-12-05T06:23:25;31.17;;;15.38;;
36663;SDS011;53333;51.976;20.144;2022-12-05T06:25:58;31.50;;;15.20;;
36663;SDS011;53333;51.976;20.144;2022-12-05T06:28:33;22.90;;;12.35;;
36663;SDS011;53333;51.976;20.144;2022-12-05T06:31:08;25.92;;;13.73;;
36663;SDS011;53333;51.976;20.144;2022-12-05T06:33:43;31.38;;;14.90;;
36663;SDS011;53333;51.976;20.144;2022-12-05T06:36:18;27.40;;;13.80;;
36663;SDS011;53333;51.976;20.144;2022-12-05T06:38:53;27.95;;;14.65;;
36663;SDS011;53333;51.976;20.144;2022-12-05T06:41:27;25.85;;;13.82;;
36663;SDS011;53333;51.976;20.144;2022-12-05T06:44:02;36.25;;;17.25;;
36663;SDS011;53333;51.976;20.144;2022-12-05T06:46:36;31.13;;;16.27;;
36663;SDS011;53333;51.976;20.144;2022-12-05T06:49:10;27.98;;;14.10;;
36663;SDS011;53333;51.976;20.144;2022-12-05T06:51:43;30.65;;;14.90;;
36663;SDS011;53333;51.976;20.144;2022-12-05T06:54:17;26.00;;;12.65;;
36663;SDS011;53333;51.976;20.144;2022-12-05T06:59:25;27.08;;;13.38;;
36663;SDS011;53333;51.976;20.144;2022-12-05T07:01:59;35.38;;;16.05;;
36663;SDS011;53333;51.976;20.144;2022-12-05T07:04:32;28.20;;;15.98;;
36663;SDS011;53333;51.976;20.144;2022-12-05T07:07:06;26.98;;;13.23;;
36663;SDS011;53333;51.976;20.144;2022-12-05T07:09:39;33.03;;;14.88;;
36663;SDS011;53333;51.976;20.144;2022-12-05T07:12:24;30.05;;;15.48;;
36663;SDS011;53333;51.976;20.144;2022-12-05T07:14:59;26.25;;;15.13;;
36663;SDS011;53333;51.976;20.144;2022-12-05T07:17:34;29.00;;;16.27;;
36663;SDS011;53333;51.976;20.144;2022-12-05T07:20:09;27.13;;;15.27;;
36663;SDS011;53333;51.976;20.144;2022-12-05T07:22:44;29.08;;;14.88;;
36663;SDS011;53333;51.976;20.144;2022-12-05T07:25:17;34.55;;;16.48;;
36663;SDS011;53333;51.976;20.144;2022-12-05T07:27:53;38.03;;;17.90;;
36663;SDS011;53333;51.976;20.144;2022-12-05T07:30:27;35.88;;;17.73;;
36663;SDS011;53333;51.976;20.144;2022-12-05T07:33:01;39.90;;;18.77;;
36663;SDS011;53333;51.976;20.144;2022-12-05T07:35:35;31.13;;;16.17;;
36663;SDS011;53333;51.976;20.144;2022-12-05T07:38:09;33.05;;;15.63;;
36663;SDS011;53333;51.976;20.144;2022-12-05T07:40:42;26.60;;;14.75;;
36663;SDS011;53333;51.976;20.144;2022-12-05T07:43:16;35.78;;;16.65;;
36663;SDS011;53333;51.976;20.144;2022-12-05T07:45:51;29.83;;;16.73;;
36663;SDS011;53333;51.976;20.144;2022-12-05T07:48:24;27.45;;;14.35;;
36663;SDS011;53333;51.976;20.144;2022-12-05T07:50:58;32.97;;;16.42;;
36663;SDS011;53333;51.976;20.144;2022-12-05T07:53:33;26.90;;;15.00;;
36663;SDS011;53333;51.976;20.144;2022-12-05T07:56:07;33.65;;;16.20;;
36663;SDS011;53333;51.976;20.144;2022-12-05T07:58:42;34.08;;;15.60;;
36663;SDS011;53333;51.976;20.144;2022-12-05T08:01:18;35.42;;;18.08;;
36663;SDS011;53333;51.976;20.144;2022-12-05T08:03:53;33.47;;;17.55;;
36663;SDS011;53333;51.976;20.144;2022-12-05T08:06:29;34.17;;;16.40;;
36663;SDS011;53333;51.976;20.144;2022-12-05T08:09:03;36.75;;;16.33;;
36663;SDS011;53333;51.976;20.144;2022-12-05T08:11:41;30.40;;;16.08;;
36663;SDS011;53333;51.976;20.144;2022-12-05T08:14:22;29.42;;;16.08;;
36663;SDS011;53333;51.976;20.144;2022-12-05T08:16:57;31.30;;;15.88;;
36663;SDS011;53333;51.976;20.144;2022-12-05T08:19:31;31.88;;;16.42;;
36663;SDS011;53333;51.976;20.144;2022-12-05T08:22:04;30.20;;;16.70;;
36663;SDS011;53333;51.976;20.144;2022-12-05T08:24:38;33.08;;;16.95;;
36663;SDS011;53333;51.976;20.144;2022-12-05T08:27:12;31.02;;;16.85;;
36663;SDS011;53333;51.976;20.144;2022-12-05T08:29:45;34.25;;;18.27;;
36663;SDS011;53333;51.976;20.144;2022-12-05T08:32:20;31.75;;;16.35;;
36663;SDS011;53333;51.976;20.144;2022-12-05T08:34:54;35.47;;;16.58;;
36663;SDS011;53333;51.976;20.144;2022-12-05T08:37:27;31.38;;;16.40;;
36663;SDS011;53333;51.976;20.144;2022-12-05T08:40:01;37.65;;;18.35;;
36663;SDS011;53333;51.976;20.144;2022-12-05T08:42:35;36.25;;;16.88;;
36663;SDS011;53333;51.976;20.144;2022-12-05T08:45:09;31.58;;;16.27;;
36663;SDS011;53333;51.976;20.144;2022-12-05T08:47:44;32.97;;;16.88;;
36663;SDS011;53333;51.976;20.144;2022-12-05T08:50:17;34.22;;;16.98;;
36663;SDS011;53333;51.976;20.144;2022-12-05T08:52:51;32.70;;;16.30;;
36663;SDS011;53333;51.976;20.144;2022-12-05T08:55:25;35.92;;;16.75;;
36663;SDS011;53333;51.976;20.144;2022-12-05T08:57:58;33.58;;;16.23;;
36663;SDS011;53333;51.976;20.144;2022-12-05T09:00:32;31.90;;;15.18;;
36663;SDS011;53333;51.976;20.144;2022-12-05T09:03:07;37.25;;;15.73;;
36663;SDS011;53333;51.976;20.144;2022-12-05T09:05:42;35.75;;;16.77;;
36663;SDS011;53333;51.976;20.144;2022-12-05T09:08:16;36.28;;;18.73;;
36663;SDS011;53333;51.976;20.144;2022-12-05T09:10:50;31.42;;;15.68;;
36663;SDS011;53333;51.976;20.144;2022-12-05T09:13:26;35.95;;;18.17;;
36663;SDS011;53333;51.976;20.144;2022-12-05T09:16:03;33.78;;;15.85;;
36663;SDS011;53333;51.976;20.144;2022-12-05T09:18:39;35.03;;;17.58;;
36663;SDS011;53333;51.976;20.144;2022-12-05T09:21:13;38.35;;;15.82;;
36663;SDS011;53333;51.976;20.144;2022-12-05T09:23:48;32.83;;;17.30;;
36663;SDS011;53333;51.976;20.144;2022-12-05T09:26:24;37.47;;;18.33;;
36663;SDS011;53333;51.976;20.144;2022-12-05T09:28:58;39.88;;;17.02;;
36663;SDS011;53333;51.976;20.144;2022-12-05T09:31:33;31.63;;;15.60;;
36663;SDS011;53333;51.976;20.144;2022-12-05T09:36:44;35.00;;;15.13;;
36663;SDS011;53333;51.976;20.144;2022-12-05T09:39:20;34.78;;;16.83;;
36663;SDS011;53333;51.976;20.144;2022-12-05T09:42:06;40.15;;;19.35;;
36663;SDS011;53333;51.976;20.144;2022-12-05T09:44:57;37.85;;;16.35;;
36663;SDS011;53333;51.976;20.144;2022-12-05T09:47:41;33.97;;;17.83;;
36663;SDS011;53333;51.976;20.144;2022-12-05T09:50:22;39.60;;;18.13;;
36663;SDS011;53333;51.976;20.144;2022-12-05T09:53:04;37.47;;;18.85;;
36663;SDS011;53333;51.976;20.144;2022-12-05T09:55:44;39.88;;;19.02;;
36663;SDS011;53333;51.976;20.144;2022-12-05T09:58:24;34.83;;;18.02;;
36663;SDS011;53333;51.976;20.144;2022-12-05T10:01:02;38.42;;;17.02;;
36663;SDS011;53333;51.976;20.144;2022-12-05T10:03:44;43.80;;;20.08;;
36663;SDS011;53333;51.976;20.144;2022-12-05T10:06:23;40.58;;;19.42;;
36663;SDS011;53333;51.976;20.144;2022-12-05T10:12:00;37.00;;;18.88;;
36663;SDS011;53333;51.976;20.144;2022-12-05T10:14:44;39.08;;;19.67;;
36663;SDS011;53333;51.976;20.144;2022-12-05T10:17:30;41.33;;;18.27;;
36663;SDS011;53333;51.976;20.144;2022-12-05T10:20:09;39.50;;;20.05;;
36663;SDS011;53333;51.976;20.144;2022-12-05T10:22:49;38.83;;;18.38;;
36663;SDS011;53333;51.976;20.144;2022-12-05T10:25:27;41.15;;;19.83;;
36663;SDS011;53333;51.976;20.144;2022-12-05T10:28:05;43.13;;;20.08;;
36663;SDS011;53333;51.976;20.144;2022-12-05T10:30:47;35.75;;;18.30;;
36663;SDS011;53333;51.976;20.144;2022-12-05T10:33:24;34.38;;;17.42;;
36663;SDS011;53333;51.976;20.144;2022-12-05T10:36:08;44.33;;;19.98;;
36663;SDS011;53333;51.976;20.144;2022-12-05T10:38:43;43.60;;;18.27;;
36663;SDS011;53333;51.976;20.144;2022-12-05T10:41:17;36.08;;;16.25;;
36663;SDS011;53333;51.976;20.144;2022-12-05T10:43:53;35.45;;;17.40;;
36663;SDS011;53333;51.976;20.144;2022-12-05T10:46:30;49.75;;;19.85;;
36663;SDS011;53333;51.976;20.144;2022-12-05T10:49:07;35.53;;;18.23;;
36663;SDS011;53333;51.976;20.144;2022-12-05T10:51:43;44.80;;;20.45;;
36663;SDS011;53333;51.976;20.144;2022-12-05T10:54:19;37.70;;;18.40;;
36663;SDS011;53333;51.976;20.144;2022-12-05T10:56:56;39.45;;;19.20;;
36663;SDS011;53333;51.976;20.144;2022-12-05T10:59:43;36.80;;;18.42;;
36663;SDS011;53333;51.976;20.144;2022-12-05T11:02:21;45.38;;;19.80;;
36663;SDS011;53333;51.976;20.144;2022-12-05T11:04:57;42.38;;;18.95;;
36663;SDS011;53333;51.976;20.144;2022-12-05T11:10:17;39.10;;;17.88;;
36663;SDS011;53333;51.976;20.144;2022-12-05T11:12:57;47.28;;;22.50;;
36663;SDS011;53333;51.976;20.144;2022-12-05T11:15:31;42.63;;;19.80;;
36663;SDS011;53333;51.976;20.144;2022-12-05T11:18:26;41.03;;;20.00;;
36663;SDS011;53333;51.976;20.144;2022-12-05T11:21:12;39.13;;;19.83;;
36663;SDS011;53333;51.976;20.144;2022-12-05T11:23:48;40.92;;;18.75;;
36663;SDS011;53333;51.976;20.144;2022-12-05T11:26:33;34.00;;;18.10;;
36663;SDS011;53333;51.976;20.144;2022-12-05T11:29:19;38.17;;;18.60;;
36663;SDS011;53333;51.976;20.144;2022-12-05T11:32:02;46.63;;;21.30;;
36663;SDS011;53333;51.976;20.144;2022-12-05T11:34:38;47.70;;;21.25;;
36663;SDS011;53333;51.976;20.144;2022-12-05T11:37:19;50.97;;;19.73;;
36663;SDS011;53333;51.976;20.144;2022-12-05T11:39:56;57.05;;;22.80;;
36663;SDS011;53333;51.976;20.144;2022-12-05T11:42:36;48.88;;;21.33;;
36663;SDS011;53333;51.976;20.144;2022-12-05T11:45:32;55.10;;;21.52;;
36663;SDS011;53333;51.976;20.144;2022-12-05T11:48:22;49.08;;;21.85;;
36663;SDS011;53333;51.976;20.144;2022-12-05T11:51:14;50.72;;;22.20;;
36663;SDS011;53333;51.976;20.144;2022-12-05T11:57:22;52.65;;;24.15;;
36663;SDS011;53333;51.976;20.144;2022-12-05T12:00:18;52.13;;;22.25;;
36663;SDS011;53333;51.976;20.144;2022-12-05T12:03:01;43.53;;;19.90;;
36663;SDS011;53333;51.976;20.144;2022-12-05T12:05:53;47.40;;;22.25;;
36663;SDS011;53333;51.976;20.144;2022-12-05T12:08:39;41.78;;;20.05;;
36663;SDS011;53333;51.976;20.144;2022-12-05T12:11:28;39.25;;;19.13;;
36663;SDS011;53333;51.976;20.144;2022-12-05T12:14:09;44.15;;;20.38;;
36663;SDS011;53333;51.976;20.144;2022-12-05T12:16:52;44.25;;;20.13;;
36663;SDS011;53333;51.976;20.144;2022-12-05T12:19:41;42.25;;;20.23;;
36663;SDS011;53333;51.976;20.144;2022-12-05T12:22:35;41.80;;;19.25;;
36663;SDS011;53333;51.976;20.144;2022-12-05T12:25:23;42.30;;;19.35;;
36663;SDS011;53333;51.976;20.144;2022-12-05T12:28:09;40.50;;;19.25;;
36663;SDS011;53333;51.976;20.144;2022-12-05T12:30:57;39.78;;;20.98;;
36663;SDS011;53333;51.976;20.144;2022-12-05T12:34:01;47.92;;;21.10;;
36663;SDS011;53333;51.976;20.144;2022-12-05T12:36:47;47.42;;;20.50;;
36663;SDS011;53333;51.976;20.144;2022-12-05T12:39:29;45.92;;;20.92;;
36663;SDS011;53333;51.976;20.144;2022-12-05T12:42:17;42.72;;;19.13;;
36663;SDS011;53333;51.976;20.144;2022-12-05T12:45:13;50.85;;;21.02;;
36663;SDS011;53333;51.976;20.144;2022-12-05T12:48:08;45.38;;;20.95;;
36663;SDS011;53333;51.976;20.144;2022-12-05T12:50:57;46.10;;;20.98;;
36663;SDS011;53333;51.976;20.144;2022-12-05T12:53:37;46.05;;;20.52;;
36663;SDS011;53333;51.976;20.144;2022-12-05T12:56:26;46.30;;;21.23;;
36663;SDS011;53333;51.976;20.144;2022-12-05T12:59:13;45.20;;;21.23;;
36663;SDS011;53333;51.976;20.144;2022-12-05T13:01:56;47.53;;;21.42;;
36663;SDS011;53333;51.976;20.144;2022-12-05T13:04:37;47.45;;;21.55;;
36663;SDS011;53333;51.976;20.144;2022-12-05T13:07:22;47.25;;;22.05;;
36663;SDS011;53333;51.976;20.144;2022-12-05T13:10:05;50.10;;;21.38;;
36663;SDS011;53333;51.976;20.144;2022-12-05T13:12:49;42.88;;;20.27;;
36663;SDS011;53333;51.976;20.144;2022-12-05T13:15:27;43.45;;;21.73;;
36663;SDS011;53333;51.976;20.144;2022-12-05T13:18:09;45.10;;;20.10;;
36663;SDS011;53333;51.976;20.144;2022-12-05T13:20:47;42.70;;;20.33;;
36663;SDS011;53333;51.976;20.144;2022-12-05T13:23:24;46.03;;;20.80;;
36663;SDS011;53333;51.976;20.144;2022-12-05T13:26:00;45.90;;;22.75;;
36663;SDS011;53333;51.976;20.144;2022-12-05T13:28:46;52.72;;;24.20;;
36663;SDS011;53333;51.976;20.144;2022-12-05T13:31:33;53.70;;;24.13;;
36663;SDS011;53333;51.976;20.144;2022-12-05T13:37:21;51.08;;;23.38;;
36663;SDS011;53333;51.976;20.144;2022-12-05T13:40:22;51.53;;;21.25;;
36663;SDS011;53333;51.976;20.144;2022-12-05T13:43:16;50.70;;;21.83;;
36663;SDS011;53333;51.976;20.144;2022-12-05T13:45:58;54.45;;;23.67;;
36663;SDS011;53333;51.976;20.144;2022-12-05T13:48:38;51.67;;;22.88;;
36663;SDS011;53333;51.976;20.144;2022-12-05T13:51:19;51.25;;;22.23;;
36663;SDS011;53333;51.976;20.144;2022-12-05T13:53:57;51.80;;;22.95;;
36663;SDS011;53333;51.976;20.144;2022-12-05T13:56:50;49.45;;;23.60;;
36663;SDS011;53333;51.976;20.144;2022-12-05T14:02:46;48.45;;;22.33;;
36663;SDS011;53333;51.976;20.144;2022-12-05T14:05:38;54.58;;;23.63;;
36663;SDS011;53333;51.976;20.144;2022-12-05T14:11:35;56.42;;;24.23;;
36663;SDS011;53333;51.976;20.144;2022-12-05T14:14:10;63.38;;;24.50;;
36663;SDS011;53333;51.976;20.144;2022-12-05T14:16:44;56.63;;;23.77;;
36663;SDS011;53333;51.976;20.144;2022-12-05T14:19:26;55.80;;;25.45;;
36663;SDS011;53333;51.976;20.144;2022-12-05T14:22:16;58.70;;;24.95;;
36663;SDS011;53333;51.976;20.144;2022-12-05T14:25:05;52.00;;;25.95;;
36663;SDS011;53333;51.976;20.144;2022-12-05T14:27:48;56.20;;;26.73;;
36663;SDS011;53333;51.976;20.144;2022-12-05T14:30:31;57.67;;;24.70;;
36663;SDS011;53333;51.976;20.144;2022-12-05T14:33:21;60.03;;;25.02;;
36663;SDS011;53333;51.976;20.144;2022-12-05T14:35:55;63.67;;;26.25;;
36663;SDS011;53333;51.976;20.144;2022-12-05T14:38:38;54.90;;;24.92;;
36663;SDS011;53333;51.976;20.144;2022-12-05T14:41:13;75.20;;;30.05;;
36663;SDS011;53333;51.976;20.144;2022-12-05T14:43:58;57.38;;;26.23;;
36663;SDS011;53333;51.976;20.144;2022-12-05T14:46:42;64.60;;;26.17;;
36663;SDS011;53333;51.976;20.144;2022-12-05T14:49:32;63.17;;;26.13;;
36663;SDS011;53333;51.976;20.144;2022-12-05T14:52:25;57.67;;;25.38;;
36663;SDS011;53333;51.976;20.144;2022-12-05T14:55:00;58.42;;;25.30;;
36663;SDS011;53333;51.976;20.144;2022-12-05T14:57:42;68.32;;;28.52;;
36663;SDS011;53333;51.976;20.144;2022-12-05T15:00:20;64.50;;;27.02;;
36663;SDS011;53333;51.976;20.144;2022-12-05T15:02:56;61.40;;;27.30;;
36663;SDS011;53333;51.976;20.144;2022-12-05T15:05:32;63.97;;;27.98;;
36663;SDS011;53333;51.976;20.144;2022-12-05T15:08:08;62.45;;;26.80;;
36663;SDS011;53333;51.976;20.144;2022-12-05T15:10:46;72.60;;;27.75;;
36663;SDS011;53333;51.976;20.144;2022-12-05T15:13:24;60.53;;;28.02;;
36663;SDS011;53333;51.976;20.144;2022-12-05T15:16:00;58.92;;;26.33;;
36663;SDS011;53333;51.976;20.144;2022-12-05T15:18:43;59.55;;;26.90;;
36663;SDS011;53333;51.976;20.144;2022-12-05T15:21:20;65.00;;;26.85;;
36663;SDS011;53333;51.976;20.144;2022-12-05T15:23:58;60.25;;;26.40;;
36663;SDS011;53333;51.976;20.144;2022-12-05T15:26:36;58.53;;;26.33;;
36663;SDS011;53333;51.976;20.144;2022-12-05T15:29:22;65.93;;;29.48;;
36663;SDS011;53333;51.976;20.144;2022-12-05T15:31:59;60.05;;;25.75;;
36663;SDS011;53333;51.976;20.144;2022-12-05T15:34:36;79.32;;;32.95;;
36663;SDS011;53333;51.976;20.144;2022-12-05T15:37:18;66.40;;;27.63;;
36663;SDS011;53333;51.976;20.144;2022-12-05T15:39:55;60.35;;;27.70;;
36663;SDS011;53333;51.976;20.144;2022-12-05T15:42:34;58.55;;;26.90;;
36663;SDS011;53333;51.976;20.144;2022-12-05T15:45:13;62.33;;;26.38;;
36663;SDS011;53333;51.976;20.144;2022-12-05T15:47:53;63.00;;;25.90;;
36663;SDS011;53333;51.976;20.144;2022-12-05T15:50:32;62.92;;;25.55;;